createdAt,value
2023-02-26T00:02:02.226Z,100068.50
2023-02-26T00:04:30.883Z,100076.94
2023-02-26T00:06:59.370Z,100074.25
2023-02-26T00:09:28.857Z,100072.34
2023-02-26T00:11:58.268Z,100076.47
2023-02-26T00:14:28.355Z,100080.56
2023-02-26T00:17:16.111Z,100087.19
2023-02-26T00:19:45.067Z,100087.88
2023-02-26T00:22:14.610Z,100091.34
2023-02-26T00:24:43.361Z,100093.75
2023-02-26T00:27:13.420Z,100094.78
2023-02-26T00:29:43.275Z,100100.00
2023-02-26T00:32:14.047Z,100097.69
2023-02-26T00:34:44.531Z,100104.47
2023-02-26T00:37:28.824Z,100107.91
2023-02-26T00:40:14.600Z,100104.25
2023-02-26T00:42:43.803Z,100108.19
2023-02-26T00:45:14.265Z,100111.53
2023-02-26T00:47:50.842Z,100107.31
2023-02-26T00:50:22.296Z,100110.00
2023-02-26T00:53:04.332Z,100108.47
2023-02-26T00:55:33.017Z,100108.56
2023-02-26T00:58:02.064Z,100116.47
2023-02-26T01:00:31.528Z,100123.47
2023-02-26T01:03:02.000Z,100125.03
2023-02-26T01:05:31.934Z,100134.25
2023-02-26T01:08:07.491Z,100127.47
2023-02-26T01:10:37.177Z,100129.91
2023-02-26T01:13:06.664Z,100135.69
2023-02-26T01:15:36.579Z,100145.78
2023-02-26T01:18:13.612Z,100134.78
2023-02-26T01:20:48.214Z,100143.44
2023-02-26T01:23:21.331Z,100139.34
2023-02-26T01:25:55.585Z,100141.16
2023-02-26T01:28:25.235Z,100142.69
2023-02-26T01:30:57.584Z,100146.91
2023-02-26T01:33:31.584Z,100146.00
2023-02-26T01:36:08.391Z,100150.00
2023-02-26T01:38:43.756Z,100149.09
2023-02-26T01:41:28.524Z,100167.00
2023-02-26T01:44:15.509Z,100152.22
2023-02-26T01:47:11.250Z,100158.63
2023-02-26T01:49:44.382Z,100159.94
2023-02-26T01:53:05.856Z,100168.38
2023-02-26T01:55:34.432Z,100166.38
2023-02-26T01:58:03.653Z,100170.66
2023-02-26T02:00:32.801Z,100171.34
2023-02-26T02:03:01.988Z,100180.81
2023-02-26T02:05:41.075Z,100182.69
2023-02-26T02:08:09.979Z,100182.81
2023-02-26T02:10:42.360Z,100186.50
2023-02-26T02:13:22.370Z,100177.28
2023-02-26T02:16:01.421Z,100184.06
2023-02-26T02:18:41.327Z,100183.94
2023-02-26T02:22:03.533Z,100191.38
2023-02-26T02:24:48.185Z,100185.25
2023-02-26T02:27:24.992Z,100179.91
2023-02-26T02:30:25.035Z,100198.44
2023-02-26T02:33:01.262Z,100191.53
2023-02-26T02:35:35.557Z,100191.44
2023-02-26T02:38:10.781Z,100203.19
2023-02-26T02:40:44.880Z,100206.50
2023-02-26T02:43:17.856Z,100209.72
2023-02-26T02:45:51.686Z,100213.06
2023-02-26T02:48:28.830Z,100209.59
2023-02-26T02:51:03.128Z,100211.13
2023-02-26T02:53:38.934Z,100221.34
2023-02-26T02:56:12.271Z,100226.47
2023-02-26T02:58:45.902Z,100229.78
2023-02-26T03:01:20.212Z,100231.47
2023-02-26T03:03:57.069Z,100226.47
2023-02-26T03:06:26.102Z,100231.56
2023-02-26T03:08:55.306Z,100237.56
2023-02-26T03:11:24.198Z,100234.03
2023-02-26T03:13:54.335Z,100234.13
2023-02-26T03:16:45.367Z,100229.00
2023-02-26T03:19:28.052Z,100238.47
2023-02-26T03:22:06.438Z,100241.56
2023-02-26T03:24:57.936Z,100243.09
2023-02-26T03:27:36.564Z,100249.84
2023-02-26T03:30:10.774Z,100248.97
2023-02-26T03:32:53.625Z,100244.63
2023-02-26T03:35:31.876Z,100265.06
2023-02-26T03:38:06.550Z,100266.56
2023-02-26T03:40:39.924Z,100271.41
2023-02-26T03:43:16.709Z,100272.44
2023-02-26T03:45:49.271Z,100273.97
2023-02-26T03:48:23.383Z,100275.53
2023-02-26T03:50:59.225Z,100281.41
2023-02-26T03:53:55.817Z,100284.72
2023-02-26T03:56:31.547Z,100290.38
2023-02-26T03:59:33.072Z,100290.88
2023-02-26T04:02:17.540Z,100293.16
2023-02-26T04:04:53.386Z,100292.41
2023-02-26T04:07:24.896Z,100296.63
2023-02-26T04:09:54.272Z,100303.66
2023-02-26T04:12:29.336Z,100314.75
2023-02-26T04:14:58.697Z,100313.75
2023-02-26T04:17:29.115Z,100311.06
2023-02-26T04:19:59.108Z,100308.25
2023-02-26T04:22:29.267Z,100312.34
2023-02-26T04:24:57.760Z,100317.19
2023-02-26T04:27:26.316Z,100321.28
2023-02-26T04:29:55.176Z,100326.25
2023-02-26T04:32:23.608Z,100337.38
2023-02-26T04:34:51.982Z,100342.25
2023-02-26T04:37:21.214Z,100343.00
2023-02-26T04:39:51.350Z,100338.38
2023-02-26T04:42:20.522Z,100351.94
2023-02-26T04:44:50.369Z,100354.22
2023-02-26T04:47:18.864Z,100353.97
2023-02-26T04:49:47.289Z,100352.19
2023-02-26T04:52:16.409Z,100359.56
2023-02-26T04:54:45.382Z,100363.16
2023-02-26T04:57:17.888Z,100360.84
2023-02-26T04:59:48.033Z,100361.63
2023-02-26T05:02:16.852Z,100371.56
2023-02-26T05:04:48.500Z,100373.00
2023-02-26T05:07:16.960Z,100376.31
2023-02-26T05:09:45.408Z,100376.16
2023-02-26T05:12:14.152Z,100388.16
2023-02-26T05:14:43.932Z,100379.47
2023-02-26T05:17:13.234Z,100399.66
2023-02-26T05:19:41.688Z,100401.44
2023-02-26T05:22:10.497Z,100401.59
2023-02-26T05:24:39.312Z,100387.28
2023-02-26T05:27:07.799Z,100392.50
2023-02-26T05:29:41.146Z,100410.38
2023-02-26T05:32:11.753Z,100391.75
2023-02-26T05:34:40.093Z,100410.38
2023-02-26T05:37:08.562Z,100418.81
2023-02-26T05:39:36.909Z,100416.25
2023-02-26T05:42:05.384Z,100417.75
2023-02-26T05:44:33.825Z,100420.97
2023-02-26T05:47:02.349Z,100429.25
2023-02-26T05:49:32.125Z,100428.84
2023-02-26T05:52:00.456Z,100432.06
2023-02-26T05:54:28.829Z,100443.03
2023-02-26T05:56:57.301Z,100446.19
2023-02-26T05:59:26.201Z,100443.66
2023-02-26T06:01:54.706Z,100456.53
2023-02-26T06:04:23.048Z,100461.66
2023-02-26T06:06:52.782Z,100466.75
2023-02-26T06:09:21.121Z,100470.06
2023-02-26T06:11:49.543Z,100463.44
2023-02-26T06:14:18.196Z,100471.09
2023-02-26T06:16:46.635Z,100471.09
2023-02-26T06:19:15.067Z,100483.09
2023-02-26T06:21:43.585Z,100484.13
2023-02-26T06:24:13.397Z,100488.75
2023-02-26T06:26:41.727Z,100496.50
2023-02-26T06:29:10.096Z,100497.56
2023-02-26T06:31:38.529Z,100503.81
2023-02-26T06:34:07.072Z,100503.19
2023-02-26T06:36:35.495Z,100514.41
2023-02-26T06:39:03.909Z,100515.06
2023-02-26T06:41:33.649Z,100519.88
2023-02-26T06:44:02.084Z,100522.94
2023-02-26T06:46:30.847Z,100526.91
2023-02-26T06:48:59.331Z,100534.91
2023-02-26T06:51:27.817Z,100531.06
2023-02-26T06:53:56.168Z,100544.28
2023-02-26T06:56:25.316Z,100556.50
2023-02-26T06:58:55.531Z,100557.00
2023-02-26T07:01:24.207Z,100550.09
2023-02-26T07:03:52.860Z,100565.41
2023-02-26T07:06:27.682Z,100562.13
2023-02-26T07:08:57.104Z,100564.53
2023-02-26T07:11:25.861Z,100573.06
2023-02-26T07:13:56.147Z,100581.28
2023-02-26T07:16:25.216Z,100579.78
2023-02-26T07:18:53.889Z,100590.53
2023-02-26T07:21:22.232Z,100586.31
2023-02-26T07:23:50.617Z,100598.56
2023-02-26T07:26:19.270Z,100599.13
2023-02-26T07:28:47.686Z,100605.38
2023-02-26T07:31:17.715Z,100610.78
2023-02-26T07:33:46.133Z,100612.56
2023-02-26T07:36:15.132Z,100604.13
2023-02-26T07:38:43.758Z,100609.22
2023-02-26T07:41:12.404Z,100605.03
2023-02-26T07:43:40.924Z,100608.63
2023-02-26T07:46:09.538Z,100625.44
2023-02-26T07:48:39.256Z,100623.78
2023-02-26T07:51:08.057Z,100626.09
2023-02-26T07:53:36.798Z,100637.56
2023-02-26T07:56:05.822Z,100644.03
2023-02-26T07:58:34.277Z,100650.53
2023-02-26T08:01:02.864Z,100652.03
2023-02-26T08:03:32.160Z,100645.78
2023-02-26T08:06:02.989Z,100630.31
2023-02-26T08:08:33.288Z,100639.50
2023-02-26T08:11:02.330Z,100647.16
2023-02-26T08:13:30.744Z,100643.97
2023-02-26T08:15:59.163Z,100639.16
2023-02-26T08:18:27.741Z,100643.91
2023-02-26T08:20:56.756Z,100652.88
2023-02-26T08:23:27.768Z,100653.75
2023-02-26T08:26:02.459Z,100657.97
2023-02-26T08:28:30.854Z,100663.84
2023-02-26T08:30:59.678Z,100660.22
2023-02-26T08:33:29.399Z,100668.03
2023-02-26T08:35:59.025Z,100683.75
2023-02-26T08:38:30.090Z,100678.31
2023-02-26T08:40:59.218Z,100677.03
2023-02-26T08:43:28.220Z,100683.19
2023-02-26T08:45:58.478Z,100680.66
2023-02-26T08:48:26.961Z,100683.34
2023-02-26T08:50:55.267Z,100686.31
2023-02-26T08:53:24.113Z,100690.66
2023-02-26T08:55:54.757Z,100695.13
2023-02-26T08:58:23.686Z,100703.19
2023-02-26T09:00:52.144Z,100696.41
2023-02-26T09:03:20.535Z,100704.38
2023-02-26T09:05:49.299Z,100702.06
2023-02-26T09:08:17.684Z,100724.16
2023-02-26T09:10:46.287Z,100717.53
2023-02-26T09:13:16.583Z,100715.25
2023-02-26T09:15:45.051Z,100721.03
2023-02-26T09:18:15.657Z,100722.34
2023-02-26T09:20:45.372Z,100723.63
2023-02-26T09:23:14.495Z,100721.38
2023-02-26T09:25:42.899Z,100730.97
2023-02-26T09:28:11.613Z,100734.44
2023-02-26T09:30:42.139Z,100739.69
2023-02-26T09:33:10.607Z,100733.81
2023-02-26T09:35:39.006Z,100734.97
2023-02-26T09:38:08.198Z,100749.84
2023-02-26T09:40:46.309Z,100739.72
2023-02-26T09:43:46.460Z,100745.22
2023-02-26T09:46:30.528Z,100748.31
2023-02-26T09:49:10.418Z,100748.25
2023-02-26T09:51:39.006Z,100755.56
2023-02-26T09:54:16.664Z,100761.19
2023-02-26T09:56:46.726Z,100762.09
2023-02-26T09:59:15.396Z,100776.94
2023-02-26T10:01:52.861Z,100780.16
2023-02-26T10:04:35.121Z,100775.59
2023-02-26T10:07:18.268Z,100778.66
2023-02-26T10:10:05.562Z,100782.53
2023-02-26T10:12:38.433Z,100789.69
2023-02-26T10:15:13.278Z,100781.75
2023-02-26T10:17:56.045Z,100793.91
2023-02-26T10:20:32.295Z,100781.25
2023-02-26T10:23:07.406Z,100790.97
2023-02-26T10:25:42.493Z,100792.63
2023-02-26T10:28:34.678Z,100790.47
2023-02-26T10:31:10.905Z,100787.66
2023-02-26T10:33:52.003Z,100803.03
2023-02-26T10:36:27.084Z,100783.06
2023-02-26T10:39:05.997Z,100793.06
2023-02-26T10:41:38.542Z,100793.84
2023-02-26T10:44:18.930Z,100787.06
2023-02-26T10:46:55.122Z,100786.44
2023-02-26T10:49:58.108Z,100792.56
2023-02-26T10:52:29.002Z,100795.13
2023-02-26T10:55:25.276Z,100799.09
2023-02-26T10:58:05.111Z,100793.06
2023-02-26T11:00:35.734Z,100792.69
2023-02-26T11:03:06.658Z,100797.44
2023-02-26T11:05:36.592Z,100792.97
2023-02-26T11:08:11.771Z,100802.84
2023-02-26T11:10:50.029Z,100800.50
2023-02-26T11:13:18.881Z,100816.91
2023-02-26T11:15:52.220Z,100802.69
2023-02-26T11:18:26.618Z,100813.31
2023-02-26T11:20:59.877Z,100826.38
2023-02-26T11:23:31.644Z,100833.19
2023-02-26T11:26:05.719Z,100814.34
2023-02-26T11:28:39.526Z,100814.63
2023-02-26T11:31:11.654Z,100818.56
2023-02-26T11:33:45.121Z,100823.97
2023-02-26T11:36:18.086Z,100825.09
2023-02-26T11:38:53.326Z,100825.38
2023-02-26T11:41:21.825Z,100818.69
2023-02-26T11:44:02.284Z,100805.78
2023-02-26T11:46:31.019Z,100817.53
2023-02-26T11:49:02.134Z,100819.59
2023-02-26T11:51:32.190Z,100800.25
2023-02-26T11:54:02.758Z,100810.59
2023-02-26T11:56:34.341Z,100802.31
2023-02-26T11:59:09.135Z,100803.47
2023-02-26T12:01:38.621Z,100804.63
2023-02-26T12:04:10.757Z,100798.44
2023-02-26T12:06:40.634Z,100810.75
2023-02-26T12:09:13.871Z,100804.34
2023-02-26T12:12:03.669Z,100807.91
2023-02-26T12:14:49.005Z,100804.56
2023-02-26T12:17:39.825Z,100797.25
2023-02-26T12:20:21.897Z,100798.66
2023-02-26T12:23:15.165Z,100795.59
2023-02-26T12:26:14.144Z,100805.31
2023-02-26T12:29:03.245Z,100802.88
2023-02-26T12:32:05.447Z,100812.31
2023-02-26T12:35:13.040Z,100810.44
2023-02-26T12:37:58.177Z,100813.00
2023-02-26T12:41:13.690Z,100817.09
2023-02-26T12:43:49.325Z,100814.28
2023-02-26T12:46:54.815Z,100813.03
2023-02-26T12:49:53.256Z,100809.56
2023-02-26T12:52:45.372Z,100807.59
2023-02-26T12:55:32.039Z,100816.69
2023-02-26T12:58:32.351Z,100808.38
2023-02-26T13:01:24.326Z,100803.72
2023-02-26T13:04:44.059Z,100811.19
2023-02-26T13:07:39.347Z,100810.97
2023-02-26T13:10:16.738Z,100816.31
2023-02-26T13:12:59.144Z,100815.69
2023-02-26T13:15:59.298Z,100804.28
2023-02-26T13:18:37.804Z,100825.28
2023-02-26T13:21:09.950Z,100817.56
2023-02-26T13:23:47.772Z,100820.09
2023-02-26T13:26:18.679Z,100817.91
2023-02-26T13:28:56.173Z,100814.56
2023-02-26T13:31:30.683Z,100815.34
2023-02-26T13:34:09.121Z,100825.34
2023-02-26T13:36:37.757Z,100818.31
2023-02-26T13:39:34.187Z,100820.09
2023-02-26T13:42:15.478Z,100833.16
2023-02-26T13:44:59.364Z,100823.13
2023-02-26T13:47:53.579Z,100823.38
2023-02-26T13:50:31.721Z,100818.41
2023-02-26T13:53:05.995Z,100812.22
2023-02-26T13:55:44.359Z,100820.81
2023-02-26T13:58:39.851Z,100818.25
2023-02-26T14:01:18.160Z,100823.94
2023-02-26T14:03:51.433Z,100825.47
2023-02-26T14:06:43.506Z,100824.69
2023-02-26T14:09:58.205Z,100813.66
2023-02-26T14:12:36.806Z,100816.19
2023-02-26T14:15:41.100Z,100819.81
2023-02-26T14:18:37.173Z,100816.06
2023-02-26T14:21:48.475Z,100815.56
2023-02-26T14:24:22.714Z,100808.09
2023-02-26T14:26:53.316Z,100821.28
2023-02-26T14:29:27.035Z,100818.28
2023-02-26T14:32:15.002Z,100805.72
2023-02-26T14:34:53.157Z,100802.59
2023-02-26T14:37:25.710Z,100807.19
2023-02-26T14:40:00.023Z,100812.91
2023-02-26T14:42:36.228Z,100807.34
2023-02-26T14:45:24.232Z,100803.75
2023-02-26T14:47:52.905Z,100809.44
2023-02-26T14:50:24.380Z,100812.31
2023-02-26T14:53:45.581Z,100811.34
2023-02-26T14:56:25.483Z,100812.66
2023-02-26T14:59:25.124Z,100811.69
2023-02-26T15:02:05.014Z,100819.59
2023-02-26T15:05:22.223Z,100820.63
2023-02-26T15:08:20.626Z,100828.47
2023-02-26T15:11:10.283Z,100819.84
2023-02-26T15:14:18.810Z,100831.25
2023-02-26T15:17:00.487Z,100822.91
2023-02-26T15:19:47.980Z,100824.69
2023-02-26T15:22:36.163Z,100827.56
2023-02-26T15:25:13.187Z,100830.63
2023-02-26T15:27:41.694Z,100823.75
2023-02-26T15:30:16.405Z,100832.22
2023-02-26T15:32:45.049Z,100841.59
2023-02-26T15:35:19.495Z,100848.09
2023-02-26T15:37:51.420Z,100843.97
2023-02-26T15:40:22.435Z,100849.88
2023-02-26T15:42:55.316Z,100845.53
2023-02-26T15:45:29.012Z,100844.72
2023-02-26T15:48:00.888Z,100852.56
2023-02-26T15:50:32.909Z,100849.44
2023-02-26T15:53:03.896Z,100855.75
2023-02-26T15:55:39.181Z,100856.78
2023-02-26T15:58:09.271Z,100850.84
2023-02-26T16:00:39.324Z,100855.97
2023-02-26T16:03:07.749Z,100857.53
2023-02-26T16:05:36.815Z,100860.22
2023-02-26T16:08:05.283Z,100861.22
2023-02-26T16:10:40.370Z,100850.84
2023-02-26T16:13:13.482Z,100854.22
2023-02-26T16:15:43.009Z,100864.47
2023-02-26T16:18:19.112Z,100868.03
2023-02-26T16:20:52.026Z,100864.69
2023-02-26T16:23:24.592Z,100867.50
2023-02-26T16:25:59.998Z,100869.28
2023-02-26T16:28:33.073Z,100870.59
2023-02-26T16:31:05.646Z,100879.41
2023-02-26T16:33:36.260Z,100875.44
2023-02-26T16:36:14.283Z,100878.53
2023-02-26T16:38:47.107Z,100879.19
2023-02-26T16:41:17.810Z,100881.63
2023-02-26T16:43:56.840Z,100885.09
2023-02-26T16:46:38.186Z,100893.84
2023-02-26T16:49:12.559Z,100894.59
2023-02-26T16:51:43.370Z,100898.72
2023-02-26T16:54:19.485Z,100896.28
2023-02-26T16:56:58.410Z,100892.03
2023-02-26T16:59:30.629Z,100905.22
2023-02-26T17:02:04.480Z,100906.13
2023-02-26T17:04:36.267Z,100901.13
2023-02-26T17:07:16.809Z,100900.34
2023-02-26T17:09:51.361Z,100892.53
2023-02-26T17:12:25.220Z,100895.84
2023-02-26T17:14:58.124Z,100906.25
2023-02-26T17:17:27.912Z,100903.34
2023-02-26T17:19:56.771Z,100900.78
2023-02-26T17:22:29.076Z,100911.03
2023-02-26T17:24:57.569Z,100917.72
2023-02-26T17:27:32.102Z,100911.53
2023-02-26T17:30:04.129Z,100917.22
2023-02-26T17:32:32.736Z,100921.31
2023-02-26T17:35:01.818Z,100924.56
2023-02-26T17:37:35.043Z,100931.88
2023-02-26T17:40:05.054Z,100933.28
2023-02-26T17:42:35.504Z,100934.72
2023-02-26T17:45:03.968Z,100932.69
2023-02-26T17:47:32.416Z,100936.78
2023-02-26T17:50:00.931Z,100941.78
2023-02-26T17:52:29.307Z,100943.47
2023-02-26T17:54:57.815Z,100951.91
2023-02-26T17:57:28.307Z,100952.81
2023-02-26T17:59:58.197Z,100958.34
2023-02-26T18:02:27.093Z,100968.53
2023-02-26T18:04:55.784Z,100963.13
2023-02-26T18:07:25.686Z,100964.53
2023-02-26T18:09:54.045Z,100966.06
2023-02-26T18:12:23.523Z,100962.59
2023-02-26T18:14:52.833Z,100966.84
2023-02-26T18:17:27.569Z,100966.84
2023-02-26T18:19:56.315Z,100965.72
2023-02-26T18:22:26.528Z,100969.16
2023-02-26T18:24:55.854Z,100969.94
2023-02-26T18:27:26.186Z,100962.25
2023-02-26T18:29:55.293Z,100965.44
2023-02-26T18:32:27.857Z,100971.47
2023-02-26T18:34:56.508Z,100965.44
2023-02-26T18:37:27.332Z,100971.47
2023-02-26T18:39:55.894Z,100976.59
2023-02-26T18:42:27.583Z,100967.91
2023-02-26T18:44:56.379Z,100969.44
2023-02-26T18:47:26.240Z,100972.75
2023-02-26T18:49:54.881Z,100975.47
2023-02-26T18:52:23.334Z,100970.19
2023-02-26T18:54:51.775Z,100975.31
2023-02-26T18:57:20.269Z,100976.88
2023-02-26T18:59:48.899Z,100988.41
2023-02-26T19:02:17.377Z,100983.28
2023-02-26T19:04:47.420Z,100979.16
2023-02-26T19:07:15.870Z,100988.66
2023-02-26T19:09:44.248Z,100978.16
2023-02-26T19:12:17.589Z,100976.97
2023-02-26T19:14:46.076Z,100982.25
2023-02-26T19:17:14.893Z,100986.63
2023-02-26T19:19:43.259Z,100984.81
2023-02-26T19:22:14.953Z,100985.56
2023-02-26T19:24:44.417Z,100995.06
2023-02-26T19:27:14.615Z,100987.38
2023-02-26T19:29:43.280Z,100989.94
2023-02-26T19:32:11.847Z,100993.56
2023-02-26T19:34:40.572Z,100996.88
2023-02-26T19:37:10.726Z,100993.28
2023-02-26T19:39:40.578Z,101000.22
2023-02-26T19:42:09.080Z,101000.97
2023-02-26T19:44:37.532Z,101001.50
2023-02-26T19:47:06.433Z,100997.25
2023-02-26T19:49:35.425Z,101004.06
2023-02-26T19:52:04.090Z,101013.56
2023-02-26T19:54:32.688Z,101014.47
2023-02-26T19:57:03.000Z,101023.06
2023-02-26T19:59:32.189Z,101019.59
2023-02-26T20:02:00.798Z,101015.84
2023-02-26T20:04:29.261Z,101030.34
2023-02-26T20:06:57.778Z,101022.53
2023-02-26T20:09:27.914Z,101029.56
2023-02-26T20:11:56.519Z,101033.31
2023-02-26T20:14:26.316Z,101044.56
2023-02-26T20:16:54.709Z,101036.63
2023-02-26T20:19:23.144Z,101028.81
2023-02-26T20:21:51.835Z,101034.47
2023-02-26T20:24:20.200Z,101046.09
2023-02-26T20:26:49.649Z,101046.75
2023-02-26T20:29:19.178Z,101060.22
2023-02-26T20:31:50.417Z,101053.03
2023-02-26T20:34:19.435Z,101057.41
2023-02-26T20:36:49.901Z,101064.44
2023-02-26T20:39:21.000Z,101067.13
2023-02-26T20:41:50.475Z,101071.50
2023-02-26T20:44:19.165Z,101072.56
2023-02-26T20:46:49.166Z,101072.56
2023-02-26T20:49:17.861Z,101082.81
2023-02-26T20:51:46.298Z,101076.88
2023-02-26T20:54:16.295Z,101077.78
2023-02-26T20:56:45.210Z,101078.53
2023-02-26T20:59:13.712Z,101075.97
2023-02-26T21:01:42.484Z,101073.41
2023-02-26T21:04:12.332Z,101077.91
2023-02-26T21:06:41.330Z,101073.69
2023-02-26T21:09:11.201Z,101081.53
2023-02-26T21:11:40.412Z,101079.97
2023-02-26T21:14:10.499Z,101082.44
2023-02-26T21:16:41.367Z,101076.41
2023-02-26T21:19:11.256Z,101085.00
2023-02-26T21:21:39.730Z,101085.84
2023-02-26T21:24:08.966Z,101086.75
2023-02-26T21:26:37.636Z,101090.22
2023-02-26T21:29:06.005Z,101096.13
2023-02-26T21:31:35.297Z,101091.13
2023-02-26T21:34:23.500Z,101091.91
2023-02-26T21:36:54.109Z,101094.34
2023-02-26T21:39:22.625Z,101089.22
2023-02-26T21:41:51.253Z,101091.78
2023-02-26T21:44:19.848Z,101093.44
2023-02-26T21:46:48.196Z,101096.63
2023-02-26T21:49:16.833Z,101098.44
2023-02-26T21:51:45.404Z,101097.69
2023-02-26T21:54:15.136Z,101102.03
2023-02-26T21:56:43.533Z,101101.25
2023-02-26T21:59:11.944Z,101100.50
2023-02-26T22:01:40.763Z,101098.69
2023-02-26T22:04:09.273Z,101106.28
2023-02-26T22:06:37.880Z,101104.47
2023-02-26T22:09:06.839Z,101103.56
2023-02-26T22:11:36.955Z,101107.94
2023-02-26T22:14:05.807Z,101102.81
2023-02-26T22:16:34.550Z,101116.16
2023-02-26T22:19:03.344Z,101113.31
2023-02-26T22:21:31.804Z,101110.34
2023-02-26T22:24:02.040Z,101119.56
2023-02-26T22:26:31.279Z,101111.63
2023-02-26T22:29:01.160Z,101113.28
2023-02-26T22:31:30.199Z,101102.75
2023-02-26T22:33:58.671Z,101110.19
2023-02-26T22:36:29.412Z,101126.09
2023-02-26T22:38:57.853Z,101123.25
2023-02-26T22:41:26.153Z,101117.88
2023-02-26T22:43:55.017Z,101122.72
2023-02-26T22:46:28.304Z,101123.22
2023-02-26T22:48:57.561Z,101120.38
2023-02-26T22:51:28.167Z,101127.94
2023-02-26T22:53:57.315Z,101124.91
2023-02-26T22:56:26.037Z,101126.47
2023-02-26T22:58:54.508Z,101134.31
2023-02-26T23:01:24.639Z,101131.84
2023-02-26T23:03:53.479Z,101127.81
2023-02-26T23:06:22.330Z,101130.38
2023-02-26T23:08:50.850Z,101135.50
2023-02-26T23:11:19.349Z,101140.75
2023-02-26T23:13:48.705Z,101135.50
2023-02-26T23:16:17.220Z,101149.34
2023-02-26T23:18:48.041Z,101146.00
2023-02-26T23:21:16.990Z,101147.81
2023-02-26T23:23:45.500Z,101148.72
2023-02-26T23:26:14.654Z,101143.56
2023-02-26T23:28:43.626Z,101150.50
2023-02-26T23:31:12.231Z,101140.00
2023-02-26T23:33:41.262Z,101137.75
2023-02-26T23:36:12.556Z,101140.03
2023-02-26T23:38:41.038Z,101139.50
2023-02-26T23:41:09.403Z,101156.41
2023-02-26T23:43:37.768Z,101143.34
2023-02-26T23:46:06.664Z,101145.88
2023-02-26T23:48:35.058Z,101142.44
2023-02-26T23:51:03.490Z,101144.75
2023-02-26T23:53:33.686Z,101149.88
2023-02-26T23:56:02.490Z,101154.09
2023-02-26T23:58:31.814Z,101151.63
